createdAt,value
2019-05-26T00:01:47.965Z,13.54
2019-05-26T00:04:16.795Z,13.76
2019-05-26T00:06:45.519Z,13.76
2019-05-26T00:09:14.272Z,13.79
2019-05-26T00:11:42.966Z,13.67
2019-05-26T00:14:11.751Z,13.50
2019-05-26T00:16:40.438Z,13.38
2019-05-26T00:19:09.221Z,13.36
2019-05-26T00:21:39.243Z,13.14
2019-05-26T00:24:07.929Z,12.86
2019-05-26T00:26:36.609Z,12.95
2019-05-26T00:29:05.240Z,13.12
2019-05-26T00:31:33.992Z,13.18
2019-05-26T00:34:02.628Z,13.12
2019-05-26T00:36:31.360Z,13.12
2019-05-26T00:39:00.029Z,13.06
2019-05-26T00:41:28.769Z,13.05
2019-05-26T00:43:57.519Z,12.88
2019-05-26T00:46:26.202Z,12.79
2019-05-26T00:48:55.607Z,12.72
2019-05-26T00:51:24.297Z,12.90
2019-05-26T00:53:52.987Z,12.82
2019-05-26T00:56:21.790Z,12.81
2019-05-26T00:58:50.469Z,12.82
2019-05-26T01:01:19.244Z,12.84
2019-05-26T01:03:48.649Z,12.77
2019-05-26T01:06:17.341Z,12.55
2019-05-26T01:08:46.050Z,12.46
2019-05-26T01:11:14.806Z,12.64
2019-05-26T01:13:43.493Z,12.56
2019-05-26T01:16:12.179Z,12.56
2019-05-26T01:18:41.006Z,12.56
2019-05-26T01:21:10.169Z,12.27
2019-05-26T01:23:39.070Z,12.40
2019-05-26T01:26:07.748Z,12.44
2019-05-26T01:28:36.537Z,12.29
2019-05-26T01:31:05.238Z,12.22
2019-05-26T01:33:33.908Z,12.22
2019-05-26T01:36:02.707Z,12.32
2019-05-26T01:38:31.699Z,12.32
2019-05-26T01:41:00.380Z,12.18
2019-05-26T01:43:29.088Z,12.26
2019-05-26T01:45:57.967Z,12.32
2019-05-26T01:48:26.644Z,12.25
2019-05-26T01:50:55.274Z,12.02
2019-05-26T01:53:24.018Z,12.12
2019-05-26T01:55:54.183Z,12.11
2019-05-26T01:58:22.924Z,11.99
2019-05-26T02:00:51.726Z,11.92
2019-05-26T02:03:20.502Z,11.90
2019-05-26T02:05:49.205Z,11.61
2019-05-26T02:08:19.929Z,11.66
2019-05-26T02:10:48.736Z,11.65
2019-05-26T02:13:17.399Z,11.53
2019-05-26T02:15:46.205Z,11.51
2019-05-26T02:18:14.882Z,11.52
2019-05-26T02:20:43.663Z,11.58
2019-05-26T02:23:12.350Z,11.75
2019-05-26T02:25:42.063Z,11.67
2019-05-26T02:28:10.748Z,11.32
2019-05-26T02:30:39.453Z,11.29
2019-05-26T02:33:08.231Z,11.45
2019-05-26T02:35:36.914Z,11.51
2019-05-26T02:38:05.805Z,11.44
2019-05-26T02:40:34.522Z,11.59
2019-05-26T02:43:03.276Z,11.52
2019-05-26T02:45:31.993Z,11.53
2019-05-26T02:48:02.505Z,11.35
2019-05-26T02:50:31.180Z,11.43
2019-05-26T02:52:59.861Z,11.30
2019-05-26T02:55:28.680Z,11.40
2019-05-26T02:57:57.339Z,10.98
2019-05-26T03:00:41.189Z,10.94
2019-05-26T03:03:10.211Z,10.96
2019-05-26T03:05:40.022Z,11.03
2019-05-26T03:08:09.188Z,11.07
2019-05-26T03:10:38.283Z,11.07
2019-05-26T03:13:07.131Z,10.93
2019-05-26T03:15:36.577Z,10.94
2019-05-26T03:18:07.220Z,10.81
2019-05-26T03:20:42.042Z,10.79
2019-05-26T03:23:11.147Z,10.81
2019-05-26T03:25:40.645Z,10.93
2019-05-26T03:28:09.525Z,10.91
2019-05-26T03:30:38.369Z,10.71
2019-05-26T03:33:07.900Z,10.78
2019-05-26T03:35:36.848Z,10.93
2019-05-26T03:38:05.514Z,10.94
2019-05-26T03:40:34.203Z,10.96
2019-05-26T03:43:02.911Z,10.90
2019-05-26T03:45:43.657Z,10.73
2019-05-26T03:48:16.324Z,10.68
2019-05-26T03:50:45.025Z,10.90
2019-05-26T03:53:16.776Z,10.95
2019-05-26T03:55:45.483Z,10.69
2019-05-26T03:58:14.256Z,10.78
2019-05-26T04:00:42.970Z,11.01
2019-05-26T04:03:11.625Z,11.29
2019-05-26T04:05:40.316Z,11.13
2019-05-26T04:08:09.097Z,11.17
2019-05-26T04:10:37.786Z,11.20
2019-05-26T04:13:06.696Z,11.30
2019-05-26T04:15:35.467Z,11.23
2019-05-26T04:18:04.367Z,11.29
2019-05-26T04:20:33.557Z,11.53
2019-05-26T04:23:02.196Z,11.49
2019-05-26T04:25:30.927Z,11.48
2019-05-26T04:27:59.629Z,11.60
2019-05-26T04:30:28.309Z,11.72
2019-05-26T04:32:57.005Z,11.82
2019-05-26T04:35:25.677Z,11.93
2019-05-26T04:37:54.405Z,12.02
2019-05-26T04:40:27.337Z,11.97
2019-05-26T04:42:53.475Z,11.78
2019-05-26T04:45:22.279Z,11.81
2019-05-26T04:47:50.951Z,11.92
2019-05-26T04:50:19.847Z,12.08
2019-05-26T04:53:05.211Z,12.12
2019-05-26T04:55:18.956Z,12.35
2019-05-26T04:57:47.588Z,12.26
2019-05-26T05:00:18.076Z,12.24
2019-05-26T05:02:46.857Z,12.30
2019-05-26T05:05:15.572Z,12.19
2019-05-26T05:07:44.541Z,12.14
2019-05-26T05:10:13.232Z,12.21
2019-05-26T05:12:41.921Z,12.26
2019-05-26T05:15:10.904Z,12.23
2019-05-26T05:17:39.600Z,12.19
2019-05-26T05:20:08.685Z,12.13
2019-05-26T05:22:37.486Z,12.17
2019-05-26T05:25:14.647Z,12.13
2019-05-26T05:27:39.677Z,12.10
2019-05-26T05:30:08.736Z,12.19
2019-05-26T05:32:37.457Z,12.37
2019-05-26T05:35:09.820Z,12.46
2019-05-26T05:37:38.507Z,12.36
2019-05-26T05:40:08.525Z,12.22
2019-05-26T05:42:37.990Z,12.39
2019-05-26T05:45:08.446Z,12.67
2019-05-26T05:47:37.390Z,12.74
2019-05-26T05:50:09.104Z,12.88
2019-05-26T05:52:38.184Z,12.89
2019-05-26T05:55:07.630Z,12.94
2019-05-26T05:57:36.398Z,12.99
2019-05-26T06:00:09.425Z,13.21
2019-05-26T06:02:38.290Z,13.21
2019-05-26T06:05:11.593Z,13.32
2019-05-26T06:07:40.484Z,13.36
2019-05-26T06:10:09.894Z,13.23
2019-05-26T06:12:38.654Z,13.66
2019-05-26T06:15:15.975Z,14.23
2019-05-26T06:17:44.959Z,14.11
2019-05-26T06:20:14.385Z,14.35
2019-05-26T06:22:43.041Z,14.46
2019-05-26T06:25:12.848Z,14.79
2019-05-26T06:27:43.796Z,15.00
2019-05-26T06:30:14.867Z,15.00
2019-05-26T06:32:46.163Z,14.83
2019-05-26T06:35:17.189Z,14.50
2019-05-26T06:37:46.751Z,14.37
2019-05-26T06:40:15.691Z,14.81
2019-05-26T06:42:45.011Z,14.63
2019-05-26T06:45:14.670Z,15.01
2019-05-26T06:47:43.492Z,14.92
2019-05-26T06:50:12.820Z,15.32
2019-05-26T06:52:41.738Z,15.67
2019-05-26T06:55:10.996Z,15.88
2019-05-26T06:57:39.688Z,15.91
2019-05-26T07:00:09.199Z,16.21
2019-05-26T07:02:38.905Z,16.44
2019-05-26T07:05:08.206Z,16.51
2019-05-26T07:07:36.998Z,16.65
2019-05-26T07:10:07.083Z,17.25
2019-05-26T07:12:35.978Z,17.10
2019-05-26T07:15:06.674Z,17.36
2019-05-26T07:17:37.169Z,17.39
2019-05-26T07:20:07.170Z,18.37
2019-05-26T07:22:36.841Z,17.72
2019-05-26T07:25:08.877Z,16.78
2019-05-26T07:27:37.643Z,17.17
2019-05-26T07:30:09.458Z,17.15
2019-05-26T07:32:39.846Z,16.75
2019-05-26T07:35:11.917Z,17.28
2019-05-26T07:37:41.076Z,17.53
2019-05-26T07:40:11.136Z,17.94
2019-05-26T07:42:40.013Z,17.39
2019-05-26T07:45:08.904Z,17.67
2019-05-26T07:47:37.691Z,17.65
2019-05-26T07:50:09.589Z,17.80
2019-05-26T07:52:38.499Z,17.88
2019-05-26T07:55:09.184Z,18.30
2019-05-26T07:57:38.415Z,18.58
2019-05-26T08:00:08.927Z,18.54
2019-05-26T08:02:37.685Z,18.23
2019-05-26T08:05:07.752Z,18.58
2019-05-26T08:07:36.801Z,19.28
2019-05-26T08:10:07.133Z,18.91
2019-05-26T08:12:36.257Z,18.79
2019-05-26T08:15:06.451Z,19.29
2019-05-26T08:17:35.748Z,18.84
2019-05-26T08:20:09.447Z,19.45
2019-05-26T08:22:38.294Z,20.10
2019-05-26T08:25:07.757Z,20.62
2019-05-26T08:27:39.677Z,19.95
2019-05-26T08:30:13.407Z,19.83
2019-05-26T08:32:42.099Z,20.22
2019-05-26T08:35:12.542Z,19.82
2019-05-26T08:37:41.206Z,20.16
2019-05-26T08:40:19.354Z,19.93
2019-05-26T08:42:50.549Z,19.57
2019-05-26T08:45:22.088Z,19.91
2019-05-26T08:47:51.411Z,20.51
2019-05-26T08:50:20.716Z,20.28
2019-05-26T08:52:49.851Z,20.41
2019-05-26T08:55:18.918Z,20.05
2019-05-26T08:57:48.143Z,19.98
2019-05-26T09:00:17.534Z,20.64
2019-05-26T09:02:46.507Z,21.29
2019-05-26T09:05:15.603Z,21.19
2019-05-26T09:07:45.831Z,20.94
2019-05-26T09:10:14.717Z,21.30
2019-05-26T09:12:47.696Z,21.29
2019-05-26T09:15:14.260Z,21.41
2019-05-26T09:17:43.020Z,21.49
2019-05-26T09:20:12.526Z,20.84
2019-05-26T09:22:41.332Z,21.01
2019-05-26T09:25:10.414Z,21.24
2019-05-26T09:27:39.109Z,21.37
2019-05-26T09:30:09.177Z,21.57
2019-05-26T09:32:38.117Z,21.81
2019-05-26T09:35:09.139Z,21.90
2019-05-26T09:37:37.849Z,22.49
2019-05-26T09:40:08.310Z,22.22
2019-05-26T09:42:37.484Z,22.49
2019-05-26T09:45:08.511Z,22.80
2019-05-26T09:47:37.309Z,23.17
2019-05-26T09:50:07.766Z,23.43
2019-05-26T09:52:36.825Z,22.91
2019-05-26T09:55:09.603Z,22.43
2019-05-26T09:57:38.291Z,22.75
2019-05-26T10:00:08.727Z,23.35
2019-05-26T10:02:37.386Z,23.31
2019-05-26T10:05:06.798Z,23.06
2019-05-26T10:07:35.489Z,23.57
2019-05-26T10:10:07.393Z,23.68
2019-05-26T10:12:35.995Z,23.26
2019-05-26T10:15:06.805Z,23.22
2019-05-26T10:17:35.491Z,22.24
2019-05-26T10:20:09.189Z,22.97
2019-05-26T10:22:37.908Z,23.08
2019-05-26T10:25:08.177Z,22.17
2019-05-26T10:27:37.759Z,22.69
2019-05-26T10:30:10.894Z,23.37
2019-05-26T10:32:39.672Z,22.72
2019-05-26T10:35:08.920Z,22.59
2019-05-26T10:37:37.583Z,22.52
2019-05-26T10:40:07.523Z,22.39
2019-05-26T10:42:36.262Z,22.04
2019-05-26T10:45:08.737Z,22.34
2019-05-26T10:47:37.419Z,22.94
2019-05-26T10:50:07.718Z,23.08
2019-05-26T10:52:37.538Z,23.36
2019-05-26T10:55:06.982Z,23.40
2019-05-26T10:57:35.761Z,22.91
2019-05-26T11:00:06.381Z,22.96
2019-05-26T11:02:35.077Z,23.43
2019-05-26T11:05:05.035Z,23.32
2019-05-26T11:07:34.394Z,22.97
2019-05-26T11:10:03.584Z,22.98
2019-05-26T11:12:32.369Z,22.99
2019-05-26T11:15:02.811Z,23.21
2019-05-26T11:17:31.491Z,23.18
2019-05-26T11:20:00.192Z,22.98
2019-05-26T11:22:28.958Z,23.91
2019-05-26T11:24:57.643Z,23.91
2019-05-26T11:27:26.339Z,23.86
2019-05-26T11:29:55.151Z,23.91
2019-05-26T11:32:23.810Z,23.65
2019-05-26T11:35:01.111Z,24.05
2019-05-26T11:37:23.017Z,23.65
2019-05-26T11:39:51.756Z,23.39
2019-05-26T11:42:20.600Z,23.49
2019-05-26T11:44:49.283Z,23.00
2019-05-26T11:47:18.072Z,23.14
2019-05-26T11:49:46.775Z,23.96
2019-05-26T11:52:15.563Z,23.69
2019-05-26T11:54:44.337Z,23.91
2019-05-26T11:57:13.058Z,23.21
2019-05-26T11:59:41.816Z,23.49
2019-05-26T12:02:10.662Z,23.36
2019-05-26T12:04:39.592Z,23.47
2019-05-26T12:07:08.388Z,23.19
2019-05-26T12:09:37.177Z,23.25
2019-05-26T12:12:06.175Z,23.62
2019-05-26T12:14:35.704Z,23.48
2019-05-26T12:17:06.191Z,23.88
2019-05-26T12:19:34.889Z,23.73
2019-05-26T12:22:05.120Z,23.53
2019-05-26T12:24:33.798Z,23.64
2019-05-26T12:27:04.154Z,23.94
2019-05-26T12:29:32.820Z,24.11
2019-05-26T12:32:01.801Z,23.35
2019-05-26T12:34:30.484Z,23.67
2019-05-26T12:37:01.457Z,23.41
2019-05-26T12:39:30.451Z,23.57
2019-05-26T12:41:59.419Z,23.95
2019-05-26T12:44:28.311Z,24.68
2019-05-26T12:46:57.408Z,23.88
2019-05-26T12:49:27.847Z,23.87
2019-05-26T12:51:56.624Z,24.17
2019-05-26T12:54:25.314Z,24.12
2019-05-26T12:56:54.090Z,23.91
2019-05-26T12:59:22.799Z,23.58
2019-05-26T13:01:53.256Z,23.69
2019-05-26T13:04:22.112Z,24.03
2019-05-26T13:06:50.990Z,23.66
2019-05-26T13:09:19.775Z,23.53
2019-05-26T13:11:48.493Z,23.80
2019-05-26T13:14:17.250Z,24.05
2019-05-26T13:16:45.950Z,23.94
2019-05-26T13:19:16.271Z,24.44
2019-05-26T13:21:46.866Z,24.11
2019-05-26T13:24:18.807Z,24.15
2019-05-26T13:26:47.548Z,24.25
2019-05-26T13:29:16.641Z,24.43
2019-05-26T13:31:45.328Z,24.40
2019-05-26T13:34:14.120Z,24.39
2019-05-26T13:36:42.795Z,24.02
2019-05-26T13:39:11.403Z,23.99
2019-05-26T13:41:40.020Z,24.18
2019-05-26T13:44:08.710Z,24.31
2019-05-26T13:46:37.391Z,24.32
2019-05-26T13:49:06.039Z,24.28
2019-05-26T13:51:34.713Z,24.11
2019-05-26T13:54:03.511Z,23.82
2019-05-26T13:56:32.222Z,23.51
2019-05-26T13:59:00.971Z,23.73
2019-05-26T14:01:29.627Z,23.30
2019-05-26T14:03:58.381Z,23.63
2019-05-26T14:06:27.214Z,23.97
2019-05-26T14:08:55.912Z,23.92
2019-05-26T14:11:24.534Z,23.86
2019-05-26T14:13:53.362Z,23.78
2019-05-26T14:16:23.294Z,23.94
2019-05-26T14:18:53.801Z,23.68
2019-05-26T14:21:22.463Z,23.85
2019-05-26T14:23:51.092Z,24.23
2019-05-26T14:26:19.791Z,23.93
2019-05-26T14:28:48.501Z,23.98
2019-05-26T14:31:17.196Z,23.91
2019-05-26T14:33:45.833Z,23.99
2019-05-26T14:36:14.661Z,24.02
2019-05-26T14:38:43.873Z,23.72
2019-05-26T14:41:13.367Z,23.49
2019-05-26T14:43:42.020Z,23.59
2019-05-26T14:46:10.736Z,23.88
2019-05-26T14:48:39.428Z,24.00
2019-05-26T14:51:08.884Z,24.16
2019-05-26T14:53:37.531Z,24.51
2019-05-26T14:56:06.406Z,23.55
2019-05-26T14:58:35.071Z,23.56
2019-05-26T15:01:03.780Z,22.97
2019-05-26T15:03:32.442Z,23.33
2019-05-26T15:06:05.982Z,23.29
2019-05-26T15:08:31.617Z,23.55
2019-05-26T15:11:00.236Z,23.41
2019-05-26T15:13:28.950Z,23.07
2019-05-26T15:16:09.398Z,22.79
2019-05-26T15:18:28.002Z,22.51
2019-05-26T15:20:56.651Z,22.64
2019-05-26T15:23:25.342Z,22.53
2019-05-26T15:25:54.031Z,22.46
2019-05-26T15:28:22.707Z,21.97
2019-05-26T15:30:51.379Z,22.31
2019-05-26T15:33:21.548Z,22.19
2019-05-26T15:35:52.248Z,21.93
2019-05-26T15:38:20.607Z,22.31
2019-05-26T15:40:49.390Z,22.20
2019-05-26T15:43:17.998Z,22.03
2019-05-26T15:45:46.638Z,21.98
2019-05-26T15:48:15.357Z,21.99
2019-05-26T15:50:44.039Z,22.05
2019-05-26T15:53:12.734Z,22.15
2019-05-26T15:55:41.925Z,22.25
2019-05-26T15:58:10.658Z,22.26
2019-05-26T16:00:39.383Z,22.42
2019-05-26T16:03:08.062Z,22.37
2019-05-26T16:05:38.476Z,22.04
2019-05-26T16:08:07.157Z,21.95
2019-05-26T16:10:35.885Z,22.17
2019-05-26T16:13:04.506Z,22.10
2019-05-26T16:15:33.165Z,22.07
2019-05-26T16:18:01.954Z,21.75
2019-05-26T16:20:30.617Z,21.69
2019-05-26T16:22:59.483Z,21.69
2019-05-26T16:25:28.114Z,21.76
2019-05-26T16:27:56.868Z,21.70
2019-05-26T16:30:25.920Z,21.64
2019-05-26T16:32:54.661Z,21.60
2019-05-26T16:35:23.381Z,21.53
2019-05-26T16:37:52.132Z,21.56
2019-05-26T16:40:20.864Z,21.56
2019-05-26T16:42:49.522Z,21.43
2019-05-26T16:45:19.217Z,21.42
2019-05-26T16:47:48.068Z,21.29
2019-05-26T16:50:16.893Z,21.23
2019-05-26T16:52:45.517Z,21.09
2019-05-26T16:55:14.380Z,20.84
2019-05-26T16:57:43.103Z,20.90
2019-05-26T17:00:11.973Z,20.88
2019-05-26T17:02:40.590Z,20.83
2019-05-26T17:05:09.435Z,20.78
2019-05-26T17:07:38.048Z,20.85
2019-05-26T17:10:09.634Z,20.50
2019-05-26T17:12:38.273Z,20.35
2019-05-26T17:15:08.298Z,20.35
2019-05-26T17:17:36.927Z,20.20
2019-05-26T17:20:09.678Z,20.19
2019-05-26T17:22:38.502Z,20.22
2019-05-26T17:25:07.649Z,20.22
2019-05-26T17:27:38.294Z,20.00
2019-05-26T17:30:07.914Z,20.00
2019-05-26T17:32:36.696Z,20.07
2019-05-26T17:35:06.643Z,19.93
2019-05-26T17:37:35.365Z,19.89
2019-05-26T17:40:06.723Z,19.87
2019-05-26T17:42:35.461Z,19.86
2019-05-26T17:45:07.615Z,19.90
2019-05-26T17:47:36.322Z,19.82
2019-05-26T17:50:09.391Z,19.71
2019-05-26T17:52:38.210Z,19.67
2019-05-26T17:55:08.710Z,19.75
2019-05-26T17:57:37.411Z,19.87
2019-05-26T18:00:09.756Z,19.87
2019-05-26T18:02:38.508Z,19.89
2019-05-26T18:05:07.518Z,19.86
2019-05-26T18:07:36.298Z,20.00
2019-05-26T18:10:09.041Z,19.64
2019-05-26T18:12:38.039Z,19.48
2019-05-26T18:15:09.677Z,19.57
2019-05-26T18:17:46.883Z,19.39
2019-05-26T18:20:08.939Z,19.36
2019-05-26T18:22:39.659Z,19.38
2019-05-26T18:25:09.252Z,19.29
2019-05-26T18:27:42.825Z,19.24
2019-05-26T18:30:12.044Z,19.25
2019-05-26T18:32:40.707Z,19.19
2019-05-26T18:35:09.940Z,19.15
2019-05-26T18:37:40.024Z,19.10
2019-05-26T18:40:09.398Z,19.14
2019-05-26T18:42:38.113Z,19.08
2019-05-26T18:45:08.552Z,19.06
2019-05-26T18:47:38.933Z,18.87
2019-05-26T18:50:09.851Z,18.74
2019-05-26T18:52:41.063Z,18.74
2019-05-26T18:55:10.445Z,18.81
2019-05-26T18:57:44.331Z,18.69
2019-05-26T19:00:14.432Z,18.40
2019-05-26T19:02:43.339Z,18.61
2019-05-26T19:05:12.662Z,18.57
2019-05-26T19:07:41.524Z,18.38
2019-05-26T19:10:10.805Z,18.42
2019-05-26T19:12:39.570Z,18.41
2019-05-26T19:15:09.238Z,18.44
2019-05-26T19:17:37.876Z,18.21
2019-05-26T19:20:16.299Z,18.18
2019-05-26T19:22:38.498Z,18.14
2019-05-26T19:25:07.268Z,18.11
2019-05-26T19:27:36.047Z,17.89
2019-05-26T19:30:09.009Z,17.89
2019-05-26T19:32:37.842Z,17.83
2019-05-26T19:35:07.737Z,17.72
2019-05-26T19:37:36.523Z,17.65
2019-05-26T19:40:08.776Z,17.73
2019-05-26T19:42:40.949Z,17.66
2019-05-26T19:45:11.570Z,17.58
2019-05-26T19:47:40.190Z,17.61
2019-05-26T19:50:09.992Z,17.54
2019-05-26T19:52:38.865Z,17.41
2019-05-26T19:55:10.860Z,17.52
2019-05-26T19:57:39.481Z,17.38
2019-05-26T20:00:13.723Z,17.26
2019-05-26T20:02:42.472Z,17.17
2019-05-26T20:05:11.675Z,16.78
2019-05-26T20:07:40.405Z,16.83
2019-05-26T20:10:09.373Z,16.69
2019-05-26T20:12:37.996Z,16.82
2019-05-26T20:15:07.514Z,16.76
2019-05-26T20:17:36.207Z,16.81
2019-05-26T20:20:07.396Z,16.75
2019-05-26T20:22:36.242Z,16.70
2019-05-26T20:25:07.554Z,16.69
2019-05-26T20:27:36.174Z,16.51
2019-05-26T20:30:06.476Z,16.51
2019-05-26T20:32:36.885Z,16.47
2019-05-26T20:35:08.478Z,16.37
2019-05-26T20:37:37.416Z,16.37
2019-05-26T20:40:07.463Z,16.28
2019-05-26T20:42:36.112Z,16.10
2019-05-26T20:45:06.987Z,16.07
2019-05-26T20:47:35.629Z,16.10
2019-05-26T20:50:06.311Z,16.14
2019-05-26T20:52:36.713Z,16.12
2019-05-26T20:55:09.766Z,16.19
2019-05-26T20:57:38.466Z,16.14
2019-05-26T21:00:13.869Z,15.97
2019-05-26T21:02:43.665Z,15.78
2019-05-26T21:05:12.424Z,15.79
2019-05-26T21:07:41.193Z,15.80
2019-05-26T21:10:10.721Z,15.92
2019-05-26T21:12:39.403Z,15.90
2019-05-26T21:15:09.525Z,15.95
2019-05-26T21:17:38.258Z,15.91
2019-05-26T21:20:08.465Z,15.81
2019-05-26T21:22:37.238Z,15.80
2019-05-26T21:25:06.680Z,15.95
2019-05-26T21:27:35.381Z,15.80
2019-05-26T21:30:08.209Z,15.71
2019-05-26T21:32:37.002Z,15.67
2019-05-26T21:35:07.014Z,15.52
2019-05-26T21:37:35.820Z,15.54
2019-05-26T21:40:06.105Z,15.53
2019-05-26T21:42:34.813Z,15.37
2019-05-26T21:45:04.924Z,15.35
2019-05-26T21:47:33.716Z,15.34
2019-05-26T21:50:02.411Z,15.31
2019-05-26T21:52:31.102Z,15.11
2019-05-26T21:54:59.797Z,14.98
2019-05-26T21:57:28.644Z,15.01
2019-05-26T21:59:57.259Z,15.00
2019-05-26T22:02:25.882Z,15.08
2019-05-26T22:04:54.580Z,15.06
2019-05-26T22:07:23.194Z,15.01
2019-05-26T22:09:51.862Z,15.04
2019-05-26T22:12:20.531Z,15.08
2019-05-26T22:14:49.211Z,15.02
2019-05-26T22:17:17.832Z,14.76
2019-05-26T22:19:46.466Z,14.75
2019-05-26T22:22:15.135Z,14.76
2019-05-26T22:24:44.070Z,14.67
2019-05-26T22:27:12.727Z,14.66
2019-05-26T22:29:41.403Z,14.59
2019-05-26T22:32:10.112Z,14.64
2019-05-26T22:34:38.731Z,14.57
2019-05-26T22:37:07.413Z,14.52
2019-05-26T22:39:37.326Z,14.49
2019-05-26T22:42:06.030Z,14.61
2019-05-26T22:44:34.648Z,14.52
2019-05-26T22:47:03.359Z,14.37
2019-05-26T22:49:31.978Z,14.30
2019-05-26T22:52:00.655Z,14.25
2019-05-26T22:54:29.324Z,14.36
2019-05-26T22:56:58.074Z,14.30
2019-05-26T22:59:26.726Z,14.18
2019-05-26T23:01:55.386Z,14.10
2019-05-26T23:04:26.104Z,13.92
2019-05-26T23:06:54.723Z,14.02
2019-05-26T23:09:23.418Z,13.85
2019-05-26T23:11:52.063Z,13.84
2019-05-26T23:14:20.709Z,13.72
2019-05-26T23:16:49.387Z,13.70
2019-05-26T23:19:19.898Z,13.62
2019-05-26T23:21:48.424Z,13.73
2019-05-26T23:24:18.452Z,13.81
2019-05-26T23:26:47.113Z,13.77
2019-05-26T23:29:15.741Z,13.88
2019-05-26T23:31:44.470Z,13.93
2019-05-26T23:34:13.117Z,14.03
2019-05-26T23:36:41.798Z,13.94
2019-05-26T23:39:10.524Z,13.86
2019-05-26T23:41:39.216Z,13.94
2019-05-26T23:44:08.013Z,14.00
2019-05-26T23:46:36.697Z,13.90
2019-05-26T23:49:05.451Z,13.84
2019-05-26T23:51:34.116Z,13.82
2019-05-26T23:54:02.887Z,13.74
2019-05-26T23:56:31.558Z,13.67
2019-05-26T23:59:00.191Z,13.65
